Address 0xf5e8a439c599205c1ab06b535de46681aed1007a 6

Overview

Balance:
6,337.182137183571303968 AVAX

Token:
My Name Tag:
Not Available

Txn Hash Method
Block
From
To
Value [Txn Fee]
0x684871ef973c9ccae86621601aacc274c9b194f92bb8c417c9e960ed2823422d0xb8f8bad4112512532022-07-04 12:20:333 mins ago0xf5e8a439c599205c1ab06b535de46681aed1007aOUT0xd035e64324bc470ee872062d508da9c2772f14b50 AVAX0.0010969530
0x848fe92ea441775bd635bd755d3aeff6990aeeebd2946e76dd65cd5bf92b3a620xb8f8bad4112511192022-07-04 12:15:328 mins ago0xf5e8a439c599205c1ab06b535de46681aed1007aOUT0xd035e64324bc470ee872062d508da9c2772f14b50 AVAX0.0010969530
0xeb91420ae42056bdf62384adbaf2fe4f5c2611c69186e3bab52a2380340afd510xb8f8bad4112509912022-07-04 12:10:2313 mins ago0xf5e8a439c599205c1ab06b535de46681aed1007aOUT0xd035e64324bc470ee872062d508da9c2772f14b50 AVAX0.0010969530
0x738b4776838bcbf0c411807d3c1176e571d1241e975bf4cb71673c8f7f0336cb0xac16d6ac112509022022-07-04 12:06:4817 mins ago0xf5e8a439c599205c1ab06b535de46681aed1007aOUT0xd035e64324bc470ee872062d508da9c2772f14b50 AVAX0.0324309330
0x9b20fb07b7bc747606eb6780b0b2114b6d6a0f3158c86cb9a4e5d6d17cae940d0xac16d6ac112509022022-07-04 12:06:4817 mins ago0xf5e8a439c599205c1ab06b535de46681aed1007aOUT0xd035e64324bc470ee872062d508da9c2772f14b50 AVAX0.0324238530
0x94d99876d1a6d3e15cbe7d4632c557cef4c780bc44266506a43d982312a9ae1c0xac16d6ac112509022022-07-04 12:06:4817 mins ago0xf5e8a439c599205c1ab06b535de46681aed1007aOUT0xd035e64324bc470ee872062d508da9c2772f14b50 AVAX0.0324182130
0xa18485fb37e86636cedf0a16ad0145359db22f6e73d84366d58318fd494711040xac16d6ac112509022022-07-04 12:06:4817 mins ago0xf5e8a439c599205c1ab06b535de46681aed1007aOUT0xd035e64324bc470ee872062d508da9c2772f14b50 AVAX0.0324118530
0xc78df9879a03e63dcba124d181fe0d812b84b2c1e2827af944aa6bbf6deff0380xac16d6ac112509022022-07-04 12:06:4817 mins ago0xf5e8a439c599205c1ab06b535de46681aed1007aOUT0xd035e64324bc470ee872062d508da9c2772f14b50 AVAX0.0324058530
0xa91efc8ecab22b6dc16ab66f703f61a3eb4692f8b957a43b9147e6471412de840xac16d6ac112509012022-07-04 12:06:4717 mins ago0xf5e8a439c599205c1ab06b535de46681aed1007aOUT0xd035e64324bc470ee872062d508da9c2772f14b50 AVAX0.0325494630
0x6b82034f97103f1ec1b2206106ce329a9ab215be253e07948c859b171f4fb9a50xb8f8bad4112508722022-07-04 12:05:2418 mins ago0xf5e8a439c599205c1ab06b535de46681aed1007aOUT0xd035e64324bc470ee872062d508da9c2772f14b50 AVAX0.0010969530
0xfde2df5dbb39fabbf7337c75087e601f790c1030d509e1c1dc228c7d1427c11a0xb8f8bad4112507392022-07-04 12:00:2523 mins ago0xf5e8a439c599205c1ab06b535de46681aed1007aOUT0xd035e64324bc470ee872062d508da9c2772f14b50 AVAX0.0010969530
0xc9945f9d7540aab5000983d212d341fb26343811eff86bc96b9e3ed2af9270ed0xb8f8bad4112506082022-07-04 11:55:2628 mins ago0xf5e8a439c599205c1ab06b535de46681aed1007aOUT0xd035e64324bc470ee872062d508da9c2772f14b50 AVAX0.0010969530
0x0a55191bd1608a27bd8a856f38c45b00651f100ab8dc792978435e7aaba39db00xb8f8bad4112504842022-07-04 11:50:3133 mins ago0xf5e8a439c599205c1ab06b535de46681aed1007aOUT0xd035e64324bc470ee872062d508da9c2772f14b50 AVAX0.0010969530
0x9fe85ce81f7582087f26499c3a595a4692fe62eea8b58c39e620da230c371d3d0xb8f8bad4112503722022-07-04 11:45:3138 mins ago0xf5e8a439c599205c1ab06b535de46681aed1007aOUT0xd035e64324bc470ee872062d508da9c2772f14b50 AVAX0.0010969530
0x73b8b1e7bb17cd5e94decbb12cbfd9e503c3457b5eab0366ef2da6e661ff0c1d0xb8f8bad4112502352022-07-04 11:40:2243 mins ago0xf5e8a439c599205c1ab06b535de46681aed1007aOUT0xd035e64324bc470ee872062d508da9c2772f14b50 AVAX0.0010969530
0x84cf3b1c26f5d04662cb7d127872336ba4d0de8fd705e76a39cbcf6579f5b7fd0xb8f8bad4112501152022-07-04 11:35:2248 mins ago0xf5e8a439c599205c1ab06b535de46681aed1007aOUT0xd035e64324bc470ee872062d508da9c2772f14b50 AVAX0.0010969530
0xb1daf3ec3d4116ffac72d70e6447edc6e205bf6104a1844c0e355f3a3cdac2200xb8f8bad4112499902022-07-04 11:30:3353 mins ago0xf5e8a439c599205c1ab06b535de46681aed1007aOUT0xd035e64324bc470ee872062d508da9c2772f14b50 AVAX0.0010969530
0x8c507fb7032d091774be765f60c092af052ade3f87229a3c0ffc1ac0588bb5e50xb8f8bad4112498722022-07-04 11:25:3058 mins ago0xf5e8a439c599205c1ab06b535de46681aed1007aOUT0xd035e64324bc470ee872062d508da9c2772f14b50 AVAX0.0010969530
0xbe0d5f51eddea2ad50df7f623b920ae0cfd7d0dfdf45505cdaf4b32ab4c3a6230xb8f8bad4112497522022-07-04 11:20:321 hr 3 mins ago0xf5e8a439c599205c1ab06b535de46681aed1007aOUT0xd035e64324bc470ee872062d508da9c2772f14b50 AVAX0.0010969530
0xe06a8b879717c267bdc9161e6ad5745ff75700083a5bf639aaa4f0ed26dab6c00xb8f8bad4112496352022-07-04 11:15:231 hr 8 mins ago0xf5e8a439c599205c1ab06b535de46681aed1007aOUT0xd035e64324bc470ee872062d508da9c2772f14b50 AVAX0.0010969530
0xce67acf834d4b445ce9b7348023490b9f2c6df832e21584d23b7f94c5e8c170a0xac16d6ac112495412022-07-04 11:11:391 hr 12 mins ago0xf5e8a439c599205c1ab06b535de46681aed1007aOUT0xd035e64324bc470ee872062d508da9c2772f14b50 AVAX0.0050471730
0x8967c7b9eb1dca01a6d5a12551257e2f6cb33ad372e2e9702702421c9ac0feac0xb8f8bad4112495162022-07-04 11:10:301 hr 13 mins ago0xf5e8a439c599205c1ab06b535de46681aed1007aOUT0xd035e64324bc470ee872062d508da9c2772f14b50 AVAX0.0010969530
0x5aec96c27cd578ca59da9d39cb5285bc48a31b444c11786184cf3482697792200xb8f8bad4112493802022-07-04 11:05:311 hr 18 mins ago0xf5e8a439c599205c1ab06b535de46681aed1007aOUT0xd035e64324bc470ee872062d508da9c2772f14b50 AVAX0.0010969530
0x1fe2309e355ce654819e9d822df5fc87772572e8a88dd638f21c6b20c98a27040xb8f8bad4112492412022-07-04 11:00:351 hr 23 mins ago0xf5e8a439c599205c1ab06b535de46681aed1007aOUT0xd035e64324bc470ee872062d508da9c2772f14b50 AVAX0.0010983930
0xa25fe029b56b0296b57d0802410a8ad86a3bebdf63e6f6512bd4711f32a0649c0xb8f8bad4112492402022-07-04 11:00:331 hr 23 mins ago0xf5e8a439c599205c1ab06b535de46681aed1007aOUT0xd035e64324bc470ee872062d508da9c2772f14b50 AVAX0.0010969530
[ Download CSV Export 
Latest 8 internal transactions
Parent Txn Hash Block From To Value
0xa3791859af875c4f85fcd6cc562b95d7330447066b46cfc9b3fd7e681d2642e6106918172022-06-14 20:24:1119 days 16 hrs ago 0x0848b8ad17d4003dde1f1b7ef1fdba4b629da97e0xf5e8a439c599205c1ab06b535de46681aed1007a1,270.872512608742030868 AVAX
0x94140c598c828454fd11ab63be5ef1e69b3e8245b61cf488e2912e2538307a36106916612022-06-14 20:15:5319 days 16 hrs ago 0x0848b8ad17d4003dde1f1b7ef1fdba4b629da97e0xf5e8a439c599205c1ab06b535de46681aed1007a5,083.490050434968123472 AVAX
0x7891d2ae8e1090b607209b9b523dcd1e7d1ba43d9312c401068edaac508c26f690785542022-04-28 20:46:1966 days 15 hrs ago 0x0848b8ad17d4003dde1f1b7ef1fdba4b629da97e0xf5e8a439c599205c1ab06b535de46681aed1007a219.473971883146940107 AVAX
0x765abeadaa8cee8b4a51dbd5ca55dfa3700100b839e159fb393c0ded4f2dceb689950442022-04-26 18:49:2768 days 17 hrs ago 0x0848b8ad17d4003dde1f1b7ef1fdba4b629da97e0xf5e8a439c599205c1ab06b535de46681aed1007a0.066387676825442396 AVAX
0xd913ab6c8cd9f41f4ca35b010a9d7b272ddee2901841d85bc2bf093d4ef4dab789950432022-04-26 18:49:2568 days 17 hrs ago 0x0848b8ad17d4003dde1f1b7ef1fdba4b629da97e0xf5e8a439c599205c1ab06b535de46681aed1007a0.066387676825442396 AVAX
0x3402ebea1f29b1502ab7d805608362d0a344da0c5901b8c60bb8314cb0b0bd3389605972022-04-25 18:30:1669 days 17 hrs ago 0x0848b8ad17d4003dde1f1b7ef1fdba4b629da97e0xf5e8a439c599205c1ab06b535de46681aed1007a0.055883424998072659 AVAX
0x98ce28b40c50906789cce290eac19d352b8c1234eaceacb01e4922b8c9d6f0ca88062492022-04-21 19:45:0673 days 16 hrs ago 0x0848b8ad17d4003dde1f1b7ef1fdba4b629da97e0xf5e8a439c599205c1ab06b535de46681aed1007a7.468753956608124477 AVAX
0x40e536ab6fe6b8856ef873cf5f8ef314f1383d8c9c1cf4bf5c5ff2e7965a5ece82915882022-04-07 19:25:0787 days 16 hrs ago 0x0848b8ad17d4003dde1f1b7ef1fdba4b629da97e0xf5e8a439c599205c1ab06b535de46681aed1007a0.003052704490799929 AVAX
[ Download CSV Export 
Loading

Contract Name:
0

Compiler Version
0

Optimization Enabled:
0

Other Settings:
-NA-
Block Transaction Gas Used Reward
Age Block Fee Address BC Fee Address Voting Power Jailed Incoming
Block Uncle Number Difficulty Gas Used Reward
Loading